EFJY

Jyvaskyla Airport

Jyväskylän Maalaiskunta, Finland
METAR EFJY 241320Z AUTO 04004KT CAVOK 18/M03 Q1029
Observed Flight Rules
May-24 @ 13:20 UTC (28 minutes ago) Visual Flight Rules
Wind Visibility Clouds
40° at 4 knots 10,000+ meters
  • Clear skies
Temperatures Readings
Current 18°C / 64°F
Dewpoint -3°C / 27°F
Humidity 24%
Altimeter 30.38" Hg
Pressure 1029 hPa
Elevation 145
METAR EFJY 241320Z AUTO 04004KT CAVOK 18/M03 Q1029
Observed Flight Rules
May-24 @ 13:20 UTC
(28 minutes ago)
VFR
Wind Visibility
40° at 4 knots 10,000+ meters
Clouds
  • Clear skies
Temperature Dewpoint
18°C / 64°F -3°C / 27°F
Humidity Altimeter Pressure
24% 30.38" Hg 1029 hPa